Cedar Mountain, North Carolina
Current Conditions -  °F | °C
As of 7:54 PM on Tuesday 27 Jan 2015 (Local Time) from KAVL Reporting Station
Overcast Overcast  
Wind Chill: 18°   Ceiling: 2300
Heat Index: 30°   Visibility: 10mi
Dew Point: 23°   Wind: 17mph
Humidity: 75%   Direction: 350°N
Pressure: 29.97"   Gusts: 24mph
Location:  35.14°N, 82.64°W
Report Text: KAVL 280054Z 35015G21KT 10SM OVC023 M01/M05 A2997 RMK AO2 SLP160 T10111050
Loading
Personal Weather Stations






























Interactive Weather Map New forecast layout! Learn more

10-Day Weather Forecast

Advertisements
Track Severe Weather on mobile